Bei Facebook empfehlenBei Twitter postenGoogle plusPinterest

Das Wetter im Erzgebirge am 07.04.2017

Wetter und Klima am 07.04.2017 Holzhau im Erzgebirge (630m ü.NN)
Letzte gemessene Temperatur und Uhrzeit der Messung23:45:00 Uhr5.90 °C
Temperatur (Maximum / Höchstwert) und Uhrzeit der Messung23:45:00 Uhr5.90 °C
Temperatur (Minimum / Tiefstwert) und Uhrzeit der Messung07:00:002.30 °C
Errechneter Absolutwert der Temperaturschwankungen zwischen Tmin und Tmax des Tages3.60 K
Errechnete Tagesmitteltemperatur3.93542 °C
Gesamt - Niederschlag des Tages (in flüssiger Form)19.17 Liter / m²
Luftdruck (Maximum / Höchstwert) und Zeitpunkt der Messung23:45:00 Uhr1017.70 hPa
Luftdruck (Minimum / Tiefstwert) und Zeitpunkt der Messung16:30:00 Uhr1015.20 hPa
Errechneter Absolutwert der Luftdruckschwankungen des Tages2.50 hPa
Höchste gemessene Windgeschwindigkeit und Uhrzeit der Messung09:45:00 Uhr16.92 km/h
Errechnete Windhäufigkeit in Relation zu den Messwerten des Tages56.25000 %
Niedrigste Windkühle (Windchill) und Zeitpunkt der Messung09:45:00 Uhr-1.10 °C
Taupunkt (Maximum / Höchstwert) und Uhrzeit der Messung23:45:00 Uhr5.30 °C
Taupunkt (Minimum / Tiefstwert) und Uhrzeit der Messung00:00:000.10 °C
Anzahl der automatisch eingelesenen Messwerte 96

Detaillierte Wetter- und Klima- Messwerte für den 07.04.2017 in Holzhau im Erzgebirge (630m ü.NN)
ZeitTemperaturLuftdruckRel. LuftfeuchteWindWindrichtungWindchillTaupunktNiederschlag l/m²
23:45:005.90 °C1017.70 hPa96.00 %6.84 km/hWNW4.50 °C5.30 °C19.17
23:30:005.90 °C1017.60 hPa96.00 %6.12 km/hWNW4.70 °C5.30 °C19.17
23:15:005.90 °C1017.60 hPa96.00 %6.48 km/hWSW4.60 °C5.30 °C18.65
23:00:005.90 °C1017.50 hPa96.00 %5.04 km/hNNW5.10 °C5.30 °C18.65
22:45:005.90 °C1017.60 hPa96.00 %5.76 km/hW4.80 °C5.30 °C18.65
22:30:005.80 °C1017.60 hPa96.00 %2.16 km/hWNW5.80 °C5.20 °C18.65
22:15:005.80 °C1017.60 hPa96.00 %5.20 °C18.13
22:00:005.80 °C1017.40 hPa96.00 %3.24 km/hWNW5.80 °C5.20 °C18.13
21:45:005.80 °C1017.20 hPa96.00 %6.84 km/hWSW4.40 °C5.20 °C17.61
21:30:005.60 °C1017.20 hPa96.00 %5.00 °C17.61
21:15:005.60 °C1017.10 hPa96.00 %5.00 °C17.61
21:00:005.60 °C1017.00 hPa96.00 %2.88 km/hSW5.60 °C5.00 °C17.61
20:45:005.50 °C1016.80 hPa96.00 %4.90 °C17.09
20:30:005.40 °C1016.80 hPa96.00 %5.76 km/hWNW4.30 °C4.80 °C17.09
20:15:005.40 °C1016.70 hPa96.00 %10.44 km/hWNW3.00 °C4.80 °C17.09
20:00:005.30 °C1016.50 hPa96.00 %0.72 km/hNW5.30 °C4.70 °C16.58
19:45:005.30 °C1016.10 hPa96.00 %4.32 km/hW5.30 °C4.70 °C16.58
19:30:005.20 °C1015.90 hPa95.00 %4.50 °C16.58
19:15:005.10 °C1016.00 hPa95.00 %5.40 km/hW4.00 °C4.40 °C16.58
19:00:005.10 °C1016.00 hPa95.00 %4.40 °C16.58
18:45:004.90 °C1015.70 hPa95.00 %4.20 °C16.06
18:30:004.90 °C1015.70 hPa95.00 %3.60 km/hN4.90 °C4.20 °C16.06
18:15:004.80 °C1015.50 hPa95.00 %1.44 km/hNW4.80 °C4.10 °C16.06
18:00:004.80 °C1015.60 hPa95.00 %4.68 km/hWSW4.80 °C4.10 °C15.54
17:45:004.80 °C1015.50 hPa95.00 %1.08 km/hW4.80 °C4.10 °C15.54
17:30:004.80 °C1015.50 hPa95.00 %4.10 °C15.02
17:15:004.60 °C1015.50 hPa95.00 %3.90 °C15.02
17:00:004.70 °C1015.50 hPa95.00 %4.00 °C14.50
16:45:004.80 °C1015.30 hPa95.00 %1.08 km/hWNW4.80 °C4.10 °C13.47
16:30:004.70 °C1015.20 hPa95.00 %4.32 km/hWNW4.70 °C4.00 °C12.43
16:15:004.50 °C1015.30 hPa95.00 %1.80 km/hNNW4.50 °C3.80 °C12.43
16:00:004.50 °C1015.30 hPa95.00 %3.80 °C11.91
15:45:004.40 °C1015.30 hPa95.00 %3.70 °C11.40
15:30:004.50 °C1015.30 hPa95.00 %2.52 km/hWNW4.50 °C3.80 °C10.88
15:15:004.40 °C1015.40 hPa95.00 %11.52 km/hNW1.60 °C3.70 °C10.36
15:00:004.40 °C1015.40 hPa95.00 %6.12 km/hNW3.00 °C3.70 °C10.36
14:45:004.40 °C1015.40 hPa95.00 %12.24 km/hW1.50 °C3.70 °C10.36
14:30:004.40 °C1015.20 hPa95.00 %10.80 km/hNNW1.80 °C3.70 °C9.84
14:15:004.30 °C1015.30 hPa94.00 %3.40 °C9.84
14:00:004.30 °C1015.30 hPa95.00 %1.08 km/hWSW4.30 °C3.60 °C9.32
13:45:004.20 °C1015.50 hPa95.00 %3.50 °C9.32
13:30:004.10 °C1015.70 hPa94.00 %1.08 km/hW4.10 °C3.20 °C8.29
13:15:003.90 °C1015.80 hPa94.00 %3.00 °C8.29
13:00:003.90 °C1015.90 hPa94.00 %12.24 km/hNW0.90 °C3.00 °C7.77
12:45:003.80 °C1015.90 hPa94.00 %7.92 km/hW1.70 °C2.90 °C7.25
12:30:003.50 °C1015.90 hPa94.00 %11.88 km/hN0.50 °C2.60 °C7.25
12:15:003.60 °C1015.80 hPa94.00 %2.70 °C6.73
12:00:003.40 °C1015.80 hPa94.00 %10.44 km/hNW0.60 °C2.50 °C6.73
11:45:003.30 °C1015.80 hPa94.00 %2.40 °C6.22
11:30:003.30 °C1015.80 hPa94.00 %10.80 km/hW0.40 °C2.40 °C5.70
11:15:003.20 °C1015.80 hPa94.00 %1.80 km/hNW3.20 °C2.30 °C5.18
11:00:003.10 °C1016.00 hPa94.00 %13.32 km/hWNW-0.30 °C2.20 °C5.18
10:45:003.00 °C1015.90 hPa94.00 %2.10 °C4.66
10:30:002.90 °C1015.80 hPa94.00 %2.00 °C4.66
10:15:003.00 °C1015.80 hPa94.00 %8.64 km/hNW0.60 °C2.10 °C4.14
10:00:002.90 °C1015.70 hPa94.00 %1.08 km/hNW2.90 °C2.00 °C4.14
09:45:002.90 °C1015.70 hPa94.00 %16.92 km/hW-1.10 °C2.00 °C3.63
09:30:002.80 °C1015.50 hPa93.00 %2.52 km/hWNW2.80 °C1.80 °C3.11
09:15:002.80 °C1015.60 hPa93.00 %1.80 °C3.11
09:00:002.80 °C1015.70 hPa94.00 %6.84 km/hN0.90 °C1.90 °C3.11
08:45:002.80 °C1015.40 hPa94.00 %1.90 °C3.11
08:30:002.80 °C1015.40 hPa94.00 %1.90 °C3.11
08:15:002.70 °C1015.30 hPa94.00 %1.80 °C3.11
08:00:002.60 °C1015.30 hPa94.00 %8.64 km/hNNW0.10 °C1.70 °C3.11
07:45:002.60 °C1015.20 hPa94.00 %1.70 °C3.11
07:30:002.40 °C1015.20 hPa94.00 %1.50 °C3.11
07:15:002.40 °C1015.20 hPa94.00 %1.50 °C3.11
07:00:002.30 °C1015.30 hPa93.00 %7.20 km/hNW0.20 °C1.30 °C3.11
06:45:002.30 °C1015.40 hPa93.00 %3.96 km/hNW2.30 °C1.30 °C2.59
06:30:002.30 °C1015.60 hPa92.00 %1.80 km/hN2.30 °C1.10 °C2.59
06:15:002.30 °C1015.80 hPa92.00 %2.52 km/hNW2.30 °C1.10 °C2.59
06:00:002.30 °C1015.80 hPa92.00 %1.44 km/hNW2.30 °C1.10 °C2.07
05:45:002.40 °C1015.80 hPa92.00 %1.20 °C2.07
05:30:002.40 °C1015.80 hPa92.00 %1.20 °C2.07
05:15:002.50 °C1015.80 hPa91.00 %3.60 km/hWNW2.50 °C1.20 °C1.55
05:00:002.60 °C1015.90 hPa91.00 %4.68 km/hNNW2.60 °C1.30 °C1.55
04:45:002.60 °C1016.00 hPa91.00 %1.30 °C1.04
04:30:002.60 °C1016.00 hPa91.00 %3.24 km/hWNW2.60 °C1.30 °C1.04
04:15:002.70 °C1015.90 hPa92.00 %1.50 °C1.04
04:00:002.80 °C1015.80 hPa92.00 %9.72 km/hW0.10 °C1.60 °C1.04
03:45:002.90 °C1015.90 hPa91.00 %1.60 °C1.04
03:30:002.90 °C1016.20 hPa91.00 %1.60 °C1.04
03:15:002.90 °C1016.30 hPa90.00 %1.40 °C1.04
03:00:002.90 °C1016.50 hPa89.00 %1.30 °C1.04
02:45:003.00 °C1016.60 hPa88.00 %1.20 °C0.52
02:30:003.20 °C1016.60 hPa87.00 %1.30 °C 
02:15:003.30 °C1016.70 hPa84.00 %0.90 °C 
02:00:003.80 °C1016.80 hPa82.00 %1.00 °C 
01:45:004.10 °C1016.70 hPa78.00 %3.96 km/hWSW4.10 °C0.60 °C 
01:30:004.10 °C1016.80 hPa78.00 %0.60 °C 
01:15:004.10 °C1016.90 hPa77.00 %2.52 km/hNW4.10 °C0.40 °C 
01:00:004.10 °C1017.00 hPa77.00 %0.40 °C 
00:45:004.10 °C1017.40 hPa77.00 %0.40 °C 
00:30:004.10 °C1017.30 hPa77.00 %2.52 km/hW4.10 °C0.40 °C 
00:15:003.90 °C1017.60 hPa77.00 %3.24 km/hWNW3.90 °C0.20 °C 
00:00:003.90 °C1017.60 hPa76.00 %0.10 °C 

Permanenter Link zu dieser Seite: Wetter im Erzgebirge am 07.04.2017
Performance-Info: Die Erstellung der Seite / Statistik(en) / Tabelle(n) erforderte 5 Datenbankserver-Abfrage(n) und dauerte 99 Millisekunden. (Dieser Messwert ist von der Gesamt-Auslastung des Servers abhängig.)
Erzgebirge - Wetter | Erzgebirge - Wetter (Mobilgeräte) | Komplette Klimadatenbank